Gilleleje, Denmark
Current Conditions -  °F | °C
As of 5:20 AM on Wednesday 28 Jan 2015 (Local Time) from ESTA Reporting Station
Overcast Overcast  
Wind Chill: 30°   Ceiling: 200
Heat Index: 37°   Visibility: 0.68mi
Dew Point: 36°   Wind: 10mph
Humidity: 93%   Direction: 210°SSW
Pressure: 29.71"   Gusts: NA
Location:  56.12°N, 12.31°E
Report Text: ESTA 280420Z AUTO 21009KT 1100 R14/P1500N R32/P1500N OVC002///03/02 Q1006
Loading
Personal Weather Stations






























Interactive Weather Map New forecast layout! Learn more

10-Day Weather Forecast

Advertisements
Track Severe Weather on mobile